Time;durP1;ratioP1;P1;durP2;ratioP2;P2;SDS_P1;SDS_P2;PMS_P1;PMS_P2;Temp;Humidity;BMP_temperature;BMP_pressure;BME280_temperature;BME280_humidity;BME280_pressure;Samples;Min_cycle;Max_cycle;Signal;HPM_P1;HPM_P2
2021/08/31 00:02:05;;;;;;;32.95;19.42;;;14.80;99.90;;;;;;4953290;29;20394;-70
2021/08/31 00:04:31;;;;;;;27.23;18.45;;;14.80;99.90;;;;;;4951507;29;20808;-70
2021/08/31 00:06:57;;;;;;;31.00;19.02;;;14.70;99.90;;;;;;4948551;28;20039;-70
2021/08/31 00:09:24;;;;;;;31.95;19.80;;;14.70;99.90;;;;;;4952808;29;20071;-71
2021/08/31 00:11:50;;;;;;;35.30;20.50;;;14.70;99.90;;;;;;4954008;28;20421;-70
2021/08/31 00:14:15;;;;;;;33.70;20.77;;;14.70;99.90;;;;;;4951214;28;20019;-70
2021/08/31 00:16:41;;;;;;;29.17;19.75;;;14.70;99.90;;;;;;4953697;28;20096;-70
2021/08/31 00:19:07;;;;;;;30.63;19.95;;;14.70;99.90;;;;;;4952889;29;20482;-70
2021/08/31 00:21:33;;;;;;;31.75;20.02;;;14.70;99.90;;;;;;4953773;28;20039;-70
2021/08/31 00:23:58;;;;;;;29.27;18.67;;;14.60;99.90;;;;;;4952081;29;20054;-70
2021/08/31 00:26:24;;;;;;;29.10;19.83;;;14.60;99.90;;;;;;4950428;28;20035;-70
2021/08/31 00:28:49;;;;;;;31.45;20.65;;;14.60;99.90;;;;;;4953008;29;20078;-70
2021/08/31 00:31:15;;;;;;;30.40;19.60;;;14.50;99.90;;;;;;4952712;29;20016;-70
2021/08/31 00:33:40;;;;;;;33.03;19.85;;;14.50;99.90;;;;;;4952072;28;20046;-71
2021/08/31 00:36:06;;;;;;;31.42;19.95;;;14.50;99.90;;;;;;4941760;29;20069;-71
2021/08/31 00:38:32;;;;;;;29.88;19.48;;;14.50;99.90;;;;;;4952814;29;20438;-70
2021/08/31 00:40:58;;;;;;;28.95;18.75;;;14.40;99.90;;;;;;4953240;29;20035;-70
2021/08/31 00:43:24;;;;;;;28.77;18.92;;;14.40;99.90;;;;;;4952132;28;20532;-71
2021/08/31 00:45:50;;;;;;;32.17;19.98;;;14.40;99.90;;;;;;4953321;28;20035;-70
2021/08/31 00:48:17;;;;;;;28.08;19.58;;;14.40;99.90;;;;;;4953048;29;20023;-70
2021/08/31 00:50:47;;;;;;;28.08;19.30;;;14.30;99.90;;;;;;4951487;28;20062;-70
2021/08/31 00:53:13;;;;;;;33.30;20.58;;;14.30;99.90;;;;;;4952452;29;20027;-70
2021/08/31 00:55:39;;;;;;;31.48;20.70;;;14.30;99.90;;;;;;4948423;29;22474;-70
2021/08/31 00:58:04;;;;;;;29.98;20.20;;;14.30;99.90;;;;;;4953804;28;20110;-71
2021/08/31 01:00:30;;;;;;;28.17;19.75;;;14.30;99.90;;;;;;4953139;28;20047;-70
2021/08/31 01:02:56;;;;;;;30.73;20.42;;;14.20;99.90;;;;;;4952221;28;20031;-71
2021/08/31 01:05:21;;;;;;;26.05;19.08;;;14.20;99.90;;;;;;4949755;29;20035;-71
2021/08/31 01:07:47;;;;;;;31.65;20.02;;;14.20;99.90;;;;;;4951949;29;20031;-70
2021/08/31 01:10:15;;;;;;;31.75;20.83;;;14.20;99.90;;;;;;4953999;28;20426;-70
2021/08/31 01:12:42;;;;;;;30.23;20.40;;;14.20;99.90;;;;;;4953437;28;20023;-70
2021/08/31 01:15:10;;;;;;;32.15;21.42;;;14.10;99.90;;;;;;4951338;28;20098;-70
2021/08/31 01:17:35;;;;;;;33.20;21.35;;;14.10;99.90;;;;;;4950745;28;20023;-70
2021/08/31 01:20:02;;;;;;;36.38;22.95;;;14.10;99.90;;;;;;4953768;29;20111;-70
2021/08/31 01:22:28;;;;;;;33.55;21.63;;;14.10;99.90;;;;;;4951280;28;20049;-70
2021/08/31 01:24:56;;;;;;;31.25;20.88;;;14.10;99.90;;;;;;4950614;28;20402;-70
2021/08/31 01:27:23;;;;;;;41.95;25.73;;;14.10;99.90;;;;;;4950639;28;20031;-70
2021/08/31 01:29:49;;;;;;;37.75;24.27;;;14.10;99.90;;;;;;4951120;28;20482;-70
2021/08/31 01:32:14;;;;;;;39.90;24.15;;;14.10;99.90;;;;;;4951645;29;20039;-70
2021/08/31 01:34:40;;;;;;;38.92;24.17;;;14.10;99.90;;;;;;4952819;29;20057;-70
2021/08/31 01:37:09;;;;;;;39.63;24.25;;;14.10;99.90;;;;;;4951029;29;20085;-71
2021/08/31 01:39:34;;;;;;;40.28;25.17;;;14.20;99.90;;;;;;4951217;28;20122;-70
2021/08/31 01:42:00;;;;;;;38.92;23.65;;;14.20;99.90;;;;;;4953844;29;20181;-70
2021/08/31 01:44:25;;;;;;;39.47;24.70;;;14.30;99.90;;;;;;4952018;29;20039;-70
2021/08/31 01:46:51;;;;;;;38.95;24.90;;;14.30;99.90;;;;;;4951433;29;20421;-70
2021/08/31 01:49:17;;;;;;;37.45;24.55;;;14.40;99.90;;;;;;4950681;28;20028;-70
2021/08/31 01:51:43;;;;;;;44.10;25.25;;;14.40;99.90;;;;;;4953502;28;20070;-70
2021/08/31 01:54:08;;;;;;;50.97;26.55;;;14.40;99.90;;;;;;4953240;28;20055;-70
2021/08/31 01:56:34;;;;;;;41.88;25.63;;;14.50;99.90;;;;;;4950748;29;20047;-70
2021/08/31 01:59:00;;;;;;;43.65;24.73;;;14.60;99.90;;;;;;4952608;28;20120;-70
2021/08/31 02:01:25;;;;;;;42.85;26.02;;;14.60;99.90;;;;;;4951916;29;20027;-70
2021/08/31 02:03:51;;;;;;;42.08;26.17;;;14.60;99.90;;;;;;4952898;29;20478;-70
2021/08/31 02:06:16;;;;;;;41.22;24.85;;;14.70;99.90;;;;;;4950373;29;20537;-70
2021/08/31 02:08:42;;;;;;;39.65;26.15;;;14.70;99.90;;;;;;4951106;29;20035;-71
2021/08/31 02:11:07;;;;;;;43.28;25.65;;;14.80;99.90;;;;;;4952140;29;20023;-70
2021/08/31 02:13:33;;;;;;;39.50;26.13;;;14.80;99.90;;;;;;4949741;29;20030;-71
2021/08/31 02:15:58;;;;;;;41.20;26.58;;;14.90;99.90;;;;;;4952052;29;20041;-70
2021/08/31 02:18:24;;;;;;;43.55;27.00;;;14.90;99.90;;;;;;4951130;29;20046;-70
2021/08/31 02:20:49;;;;;;;40.05;25.33;;;15.00;99.90;;;;;;4952421;28;20039;-71
2021/08/31 02:23:15;;;;;;;38.45;25.33;;;15.00;99.90;;;;;;4952170;29;20106;-70
2021/08/31 02:25:40;;;;;;;38.67;23.75;;;15.00;99.90;;;;;;4950861;28;20027;-70
2021/08/31 02:28:06;;;;;;;38.63;24.13;;;15.10;99.90;;;;;;4951146;29;20469;-70
2021/08/31 02:30:32;;;;;;;36.15;25.00;;;15.10;99.90;;;;;;4957355;28;20089;-70
2021/08/31 02:33:00;;;;;;;35.97;24.73;;;15.10;99.90;;;;;;4953521;28;20102;-70
2021/08/31 02:35:26;;;;;;;41.58;25.02;;;15.20;99.90;;;;;;4949011;28;20074;-70
2021/08/31 02:37:51;;;;;;;39.42;25.10;;;15.20;99.90;;;;;;4951823;28;20031;-70
2021/08/31 02:40:17;;;;;;;43.25;25.80;;;15.20;99.90;;;;;;4954213;29;20081;-70
2021/08/31 02:42:43;;;;;;;40.60;25.38;;;15.20;99.90;;;;;;4955249;28;20436;-70
2021/08/31 02:45:09;;;;;;;42.25;25.50;;;15.20;99.90;;;;;;4956568;28;20489;-70
2021/08/31 02:47:34;;;;;;;49.65;27.92;;;15.30;99.90;;;;;;4954678;29;20031;-70
2021/08/31 02:50:00;;;;;;;42.10;25.20;;;15.30;99.90;;;;;;4956079;29;20035;-70
2021/08/31 02:52:25;;;;;;;39.28;25.55;;;15.30;99.90;;;;;;4953223;28;20114;-70
2021/08/31 02:54:51;;;;;;;35.92;24.50;;;15.30;99.90;;;;;;4955208;29;20150;-70
2021/08/31 02:57:16;;;;;;;46.05;24.50;;;15.30;99.90;;;;;;4955136;29;20031;-70
2021/08/31 02:59:42;;;;;;;38.90;23.83;;;15.30;99.90;;;;;;4955791;28;20047;-70
2021/08/31 03:02:08;;;;;;;40.78;24.70;;;15.30;99.90;;;;;;4953253;29;20114;-70
2021/08/31 03:04:39;;;;;;;37.42;23.42;;;15.30;99.90;;;;;;4953352;29;20027;-70
2021/08/31 03:07:10;;;;;;;39.38;23.73;;;15.30;99.90;;;;;;4952617;28;20127;-70
2021/08/31 03:09:36;;;;;;;39.45;24.30;;;15.30;99.90;;;;;;4953161;28;20096;-70
2021/08/31 03:12:02;;;;;;;40.53;24.48;;;15.20;99.90;;;;;;4949321;28;20538;-70
2021/08/31 03:14:28;;;;;;;38.97;25.20;;;15.20;99.90;;;;;;4952450;28;20110;-70
2021/08/31 03:16:55;;;;;;;40.22;24.95;;;15.20;99.90;;;;;;4951476;28;20124;-70
2021/08/31 03:19:23;;;;;;;40.80;23.88;;;15.20;99.90;;;;;;4954513;29;20028;-70
2021/08/31 03:21:49;;;;;;;37.58;22.00;;;15.20;99.90;;;;;;4954994;28;20474;-70
2021/08/31 03:24:15;;;;;;;40.53;24.67;;;15.20;99.90;;;;;;4955477;28;20057;-70
2021/08/31 03:26:41;;;;;;;38.95;23.88;;;15.20;99.90;;;;;;4952632;28;20043;-70
2021/08/31 03:29:06;;;;;;;41.45;23.50;;;15.20;99.90;;;;;;4954758;28;20075;-70
2021/08/31 03:31:32;;;;;;;38.00;22.92;;;15.20;99.90;;;;;;4954159;29;20566;-70
2021/08/31 03:33:57;;;;;;;40.38;23.10;;;15.20;99.90;;;;;;4952868;29;20118;-70
2021/08/31 03:36:23;;;;;;;40.13;24.08;;;15.20;99.90;;;;;;4952576;29;20046;-70
2021/08/31 03:38:48;;;;;;;40.50;23.00;;;15.20;99.90;;;;;;4953745;29;20058;-70
2021/08/31 03:41:14;;;;;;;40.67;23.65;;;15.20;99.90;;;;;;4952300;29;20093;-70
2021/08/31 03:43:40;;;;;;;39.83;23.42;;;15.20;99.90;;;;;;4952307;28;20031;-70
2021/08/31 03:46:05;;;;;;;36.92;23.77;;;15.20;99.90;;;;;;4951616;28;20371;-70
2021/08/31 03:48:31;;;;;;;43.72;24.38;;;15.30;99.90;;;;;;4952099;28;20035;-70
2021/08/31 03:50:56;;;;;;;35.50;21.17;;;15.20;99.90;;;;;;4954769;29;20485;-70
2021/08/31 03:53:22;;;;;;;35.13;21.67;;;15.20;99.90;;;;;;4953713;28;20387;-70
2021/08/31 03:55:47;;;;;;;34.60;21.95;;;15.20;99.90;;;;;;4952663;29;20635;-70
2021/08/31 03:58:13;;;;;;;31.67;20.63;;;15.20;99.90;;;;;;4952828;29;20082;-70
2021/08/31 04:00:38;;;;;;;35.33;22.67;;;15.20;99.90;;;;;;4947538;29;20039;-70
2021/08/31 04:03:04;;;;;;;36.90;22.27;;;15.20;99.90;;;;;;4950298;29;20036;-70
2021/08/31 04:05:29;;;;;;;30.65;20.88;;;15.20;99.90;;;;;;4952567;28;20031;-70
2021/08/31 04:07:56;;;;;;;34.50;21.92;;;15.20;99.90;;;;;;4952024;28;20061;-70
2021/08/31 04:10:22;;;;;;;31.35;20.63;;;15.20;99.90;;;;;;4948157;28;20035;-70
2021/08/31 04:12:47;;;;;;;28.50;20.00;;;15.20;99.90;;;;;;4948123;28;20035;-70
2021/08/31 04:15:13;;;;;;;33.35;21.40;;;15.20;99.90;;;;;;4953325;29;20074;-70
2021/08/31 04:17:39;;;;;;;28.98;19.65;;;15.20;99.90;;;;;;4945222;28;20035;-70
2021/08/31 04:20:05;;;;;;;35.10;20.35;;;15.20;99.90;;;;;;4953118;29;20031;-70
2021/08/31 04:22:31;;;;;;;30.05;20.08;;;15.20;99.90;;;;;;4949199;28;20027;-70
2021/08/31 04:24:56;;;;;;;29.08;20.05;;;15.20;99.90;;;;;;4952357;28;20483;-70
2021/08/31 04:27:22;;;;;;;32.85;21.23;;;15.30;99.90;;;;;;4952552;28;20058;-70
2021/08/31 04:29:47;;;;;;;27.48;19.75;;;15.30;99.90;;;;;;4951099;28;20067;-70
2021/08/31 04:32:13;;;;;;;32.08;18.83;;;15.20;99.90;;;;;;4951781;28;20568;-70
2021/08/31 04:34:38;;;;;;;33.92;17.90;;;15.30;99.90;;;;;;4950809;29;20042;-70
2021/08/31 04:37:04;;;;;;;27.70;17.92;;;15.30;99.90;;;;;;4953004;28;20031;-70
2021/08/31 04:39:29;;;;;;;31.75;18.27;;;15.30;99.90;;;;;;4953693;28;20043;-70
2021/08/31 04:41:56;;;;;;;33.10;18.08;;;15.30;99.90;;;;;;4952086;29;20035;-70
2021/08/31 04:44:23;;;;;;;31.55;17.17;;;15.30;99.90;;;;;;4950346;29;20030;-70
2021/08/31 04:46:48;;;;;;;28.73;15.57;;;15.30;99.90;;;;;;4947397;29;20027;-70
2021/08/31 04:49:14;;;;;;;25.83;15.10;;;15.40;99.90;;;;;;4956486;28;20030;-70
2021/08/31 04:51:40;;;;;;;27.98;15.40;;;15.40;99.90;;;;;;4944875;29;20023;-70
2021/08/31 04:54:05;;;;;;;23.42;12.95;;;15.40;99.90;;;;;;4952055;28;20393;-70
2021/08/31 04:56:31;;;;;;;24.23;14.13;;;15.40;99.90;;;;;;4951231;29;20039;-70
2021/08/31 04:58:56;;;;;;;25.85;14.82;;;15.40;99.90;;;;;;4952381;28;20031;-70
2021/08/31 05:01:22;;;;;;;28.50;13.70;;;15.50;99.90;;;;;;4947362;28;20035;-70
2021/08/31 05:03:48;;;;;;;24.80;12.55;;;15.50;99.90;;;;;;4951152;29;20113;-69
2021/08/31 05:06:13;;;;;;;21.77;12.93;;;15.50;99.90;;;;;;4951676;29;20070;-70
2021/08/31 05:08:39;;;;;;;24.95;13.48;;;15.50;99.90;;;;;;4948042;29;20051;-70
2021/08/31 05:11:04;;;;;;;22.42;12.80;;;15.50;99.90;;;;;;4953961;28;20035;-70
2021/08/31 05:13:34;;;;;;;24.98;11.77;;;15.50;99.90;;;;;;4952345;29;20023;-70
2021/08/31 05:15:59;;;;;;;22.60;11.63;;;15.60;99.90;;;;;;4953512;28;20470;-70
2021/08/31 05:18:25;;;;;;;24.98;11.43;;;15.60;99.90;;;;;;4951717;28;20042;-70
2021/08/31 05:20:50;;;;;;;18.75;11.50;;;15.60;99.90;;;;;;4953002;29;20043;-70
2021/08/31 05:23:16;;;;;;;20.50;11.95;;;15.60;99.90;;;;;;4949577;28;20143;-70
2021/08/31 05:25:41;;;;;;;20.58;12.15;;;15.70;99.90;;;;;;4953270;28;20082;-70
2021/08/31 05:28:07;;;;;;;19.90;10.98;;;15.70;99.90;;;;;;4951883;28;20030;-70
2021/08/31 05:30:32;;;;;;;19.83;10.30;;;15.70;99.90;;;;;;4951127;29;20031;-70
2021/08/31 05:32:58;;;;;;;20.55;11.77;;;15.80;99.90;;;;;;4951823;29;20043;-70
2021/08/31 05:35:23;;;;;;;20.30;11.15;;;15.80;99.90;;;;;;4952073;29;20401;-70
2021/08/31 05:37:49;;;;;;;26.80;10.75;;;15.80;99.90;;;;;;4951730;29;20035;-70
2021/08/31 05:40:14;;;;;;;26.55;10.88;;;15.80;99.90;;;;;;4952030;29;20517;-70
2021/08/31 05:42:40;;;;;;;20.80;9.32;;;15.80;99.90;;;;;;4951746;28;20023;-69
2021/08/31 05:45:06;;;;;;;22.45;10.48;;;15.90;99.90;;;;;;4953684;28;20074;-70
2021/08/31 05:47:32;;;;;;;25.08;9.45;;;15.90;99.90;;;;;;4951472;28;20035;-69
2021/08/31 05:49:57;;;;;;;22.15;9.77;;;15.90;99.90;;;;;;4962521;28;20037;-70
2021/08/31 05:52:23;;;;;;;23.08;9.70;;;16.00;99.90;;;;;;4950937;28;20031;-69
2021/08/31 05:54:48;;;;;;;24.60;10.35;;;16.00;99.90;;;;;;4942405;28;20565;-70
2021/08/31 05:57:14;;;;;;;24.85;10.00;;;16.00;99.90;;;;;;4944693;29;20038;-71
2021/08/31 05:59:40;;;;;;;14.55;8.88;;;16.10;99.90;;;;;;4943138;29;20393;-70
2021/08/31 06:02:07;;;;;;;22.30;9.95;;;16.10;99.90;;;;;;4949044;28;20051;-70
2021/08/31 06:04:33;;;;;;;19.95;9.52;;;16.10;99.90;;;;;;4943415;29;20027;-70
2021/08/31 06:06:58;;;;;;;19.67;9.18;;;16.10;99.90;;;;;;4945443;29;20027;-70
2021/08/31 06:09:24;;;;;;;20.17;8.32;;;16.10;99.90;;;;;;4951818;28;20039;-70
2021/08/31 06:11:51;;;;;;;17.38;9.20;;;16.20;99.90;;;;;;4953689;28;20030;-70
2021/08/31 06:14:17;;;;;;;23.83;9.73;;;16.20;99.90;;;;;;4951343;28;20106;-68
2021/08/31 06:16:42;;;;;;;18.13;8.48;;;16.20;99.90;;;;;;4955851;28;20106;-68
2021/08/31 06:19:08;;;;;;;24.13;9.73;;;16.30;99.90;;;;;;4954494;28;20036;-68
2021/08/31 06:21:33;;;;;;;19.33;10.43;;;16.30;99.90;;;;;;4954405;28;20035;-68
2021/08/31 06:23:59;;;;;;;20.90;10.43;;;16.30;99.90;;;;;;4956842;28;20035;-68
2021/08/31 06:26:25;;;;;;;20.38;11.40;;;16.40;99.90;;;;;;4952437;28;20478;-68
2021/08/31 06:28:50;;;;;;;26.88;11.93;;;16.40;99.90;;;;;;4954720;29;20029;-68
2021/08/31 06:31:16;;;;;;;21.30;12.68;;;16.50;99.90;;;;;;4953576;29;20556;-68
2021/08/31 06:33:45;;;;;;;27.40;13.23;;;16.50;99.90;;;;;;4952948;28;20472;-68
2021/08/31 06:36:12;;;;;;;22.10;12.30;;;16.60;99.90;;;;;;4953142;28;20436;-68
2021/08/31 06:38:37;;;;;;;22.42;13.13;;;16.70;99.90;;;;;;4954277;28;20042;-68
2021/08/31 06:41:04;;;;;;;25.40;13.23;;;16.70;99.90;;;;;;4953231;29;20409;-68
2021/08/31 06:43:30;;;;;;;32.47;12.45;;;16.70;99.90;;;;;;4953868;29;20027;-68
2021/08/31 06:45:55;;;;;;;23.52;12.43;;;16.80;99.90;;;;;;4950806;28;20071;-68
2021/08/31 06:48:21;;;;;;;25.50;13.63;;;16.80;99.90;;;;;;4953953;28;20118;-68
2021/08/31 06:50:47;;;;;;;21.42;12.10;;;16.90;99.90;;;;;;4955718;29;20063;-68
2021/08/31 06:53:12;;;;;;;23.58;11.75;;;16.90;99.90;;;;;;4953057;29;20031;-68
2021/08/31 06:55:41;;;;;;;22.10;11.88;;;17.00;99.90;;;;;;4954225;29;20226;-69
2021/08/31 06:58:06;;;;;;;22.40;10.73;;;17.00;99.90;;;;;;4969891;28;20024;-69
2021/08/31 07:00:32;;;;;;;22.17;12.48;;;17.10;99.90;;;;;;4953267;29;20174;-68
2021/08/31 07:02:57;;;;;;;22.67;11.02;;;17.10;99.90;;;;;;4953593;29;20027;-69
2021/08/31 07:05:23;;;;;;;20.58;10.45;;;17.10;99.90;;;;;;4955448;29;20422;-69
2021/08/31 07:07:48;;;;;;;21.10;10.18;;;17.10;99.90;;;;;;4954493;29;20038;-68
2021/08/31 07:10:14;;;;;;;16.20;8.88;;;17.10;99.90;;;;;;4953859;29;20031;-69
2021/08/31 07:12:39;;;;;;;17.77;9.30;;;17.10;99.90;;;;;;4953756;28;20059;-69
2021/08/31 07:15:08;;;;;;;24.75;9.10;;;17.10;99.90;;;;;;4955814;28;20152;-70
2021/08/31 07:17:34;;;;;;;19.40;7.90;;;17.10;99.90;;;;;;4955825;28;20474;-70
2021/08/31 07:19:59;;;;;;;16.05;8.40;;;17.10;99.90;;;;;;4953322;28;20054;-70
2021/08/31 07:22:25;;;;;;;15.80;8.15;;;17.20;99.90;;;;;;4951550;29;20032;-70
2021/08/31 07:24:50;;;;;;;16.98;6.90;;;17.20;99.90;;;;;;4968234;28;20042;-70
2021/08/31 07:27:16;;;;;;;15.15;7.80;;;17.40;99.90;;;;;;4955323;28;20487;-70
2021/08/31 07:29:42;;;;;;;13.27;7.00;;;17.50;99.90;;;;;;4953248;28;20474;-70
2021/08/31 07:32:08;;;;;;;16.75;7.28;;;17.60;99.90;;;;;;4967338;28;20259;-70
2021/08/31 07:34:34;;;;;;;14.48;7.07;;;17.80;99.90;;;;;;4948633;28;20074;-69
2021/08/31 07:37:00;;;;;;;12.02;7.20;;;17.90;99.90;;;;;;4941980;29;20438;-70
2021/08/31 07:39:26;;;;;;;12.98;6.80;;;17.90;99.90;;;;;;4956927;28;20032;-71
2021/08/31 07:41:51;;;;;;;13.60;6.60;;;18.10;99.90;;;;;;4954768;28;20087;-71
2021/08/31 07:44:19;;;;;;;14.80;5.75;;;18.10;99.90;;;;;;4954323;28;20497;-70
2021/08/31 07:46:48;;;;;;;16.65;6.40;;;18.30;99.90;;;;;;4952560;28;20038;-70
2021/08/31 07:49:14;;;;;;;14.32;6.65;;;18.40;99.80;;;;;;4949352;28;20066;-71
2021/08/31 07:51:40;;;;;;;14.32;6.82;;;18.40;99.50;;;;;;4943807;28;20032;-69
2021/08/31 07:54:07;;;;;;;12.10;5.50;;;18.30;99.50;;;;;;4952499;29;20373;-71
2021/08/31 07:56:33;;;;;;;14.93;5.90;;;18.40;99.30;;;;;;4950796;28;20035;-69
2021/08/31 07:58:58;;;;;;;9.93;5.65;;;18.30;99.10;;;;;;4952535;29;20449;-70
2021/08/31 08:01:24;;;;;;;12.82;5.50;;;18.30;98.80;;;;;;4944381;28;20042;-70
2021/08/31 08:03:50;;;;;;;12.23;5.28;;;18.20;98.80;;;;;;4950755;28;20038;-70
2021/08/31 08:06:15;;;;;;;10.55;5.90;;;18.20;98.60;;;;;;4946847;28;20035;-70
2021/08/31 08:08:41;;;;;;;13.57;5.30;;;18.20;98.70;;;;;;4954357;28;20031;-71
2021/08/31 08:11:06;;;;;;;11.20;5.95;;;18.30;98.70;;;;;;4939013;28;20023;-70
2021/08/31 08:13:32;;;;;;;10.80;5.60;;;18.40;98.40;;;;;;4968292;28;20023;-69
2021/08/31 08:15:57;;;;;;;10.52;4.72;;;18.30;98.10;;;;;;4949955;28;20034;-70
2021/08/31 08:18:23;;;;;;;8.70;5.53;;;18.40;98.20;;;;;;4954762;28;20031;-70
2021/08/31 08:20:49;;;;;;;12.18;5.70;;;18.50;98.00;;;;;;4951733;28;20111;-70
2021/08/31 08:23:14;;;;;;;11.43;5.13;;;18.50;97.80;;;;;;4953655;28;20039;-71
2021/08/31 08:25:40;;;;;;;16.90;5.90;;;18.50;97.80;;;;;;4953620;28;20572;-70
2021/08/31 08:28:06;;;;;;;10.88;5.57;;;18.50;97.70;;;;;;4950593;28;20030;-70
2021/08/31 08:30:31;;;;;;;10.60;5.93;;;18.50;97.50;;;;;;4952542;29;20023;-69
2021/08/31 08:32:57;;;;;;;8.50;4.82;;;18.50;97.50;;;;;;4948947;28;20118;-70
2021/08/31 08:35:22;;;;;;;12.63;5.35;;;18.60;97.40;;;;;;4967582;28;20445;-69
2021/08/31 08:37:48;;;;;;;11.63;6.07;;;18.70;97.40;;;;;;4953579;28;20106;-70
2021/08/31 08:40:13;;;;;;;13.18;5.72;;;18.80;97.10;;;;;;4952493;29;20027;-69
2021/08/31 08:42:39;;;;;;;11.55;5.00;;;18.80;96.90;;;;;;4967177;28;20383;-68
2021/08/31 08:45:06;;;;;;;10.15;5.35;;;18.90;97.00;;;;;;4953965;29;20030;-69
2021/08/31 08:47:33;;;;;;;11.27;5.47;;;19.00;96.90;;;;;;4946942;28;20067;-70
2021/08/31 08:49:59;;;;;;;10.70;5.45;;;19.00;96.70;;;;;;4968191;28;20051;-69
2021/08/31 08:52:26;;;;;;;8.77;5.63;;;19.10;96.20;;;;;;4949842;28;20027;-70
2021/08/31 08:54:51;;;;;;;9.30;5.15;;;19.20;96.10;;;;;;4953097;28;20023;-69
2021/08/31 08:57:19;;;;;;;7.00;4.38;;;19.30;95.90;;;;;;4952935;28;20042;-70
2021/08/31 08:59:48;;;;;;;13.05;4.95;;;19.50;95.90;;;;;;4946527;28;20086;-70
2021/08/31 09:02:34;;;;;;;10.00;4.85;;;19.60;95.60;;;;;;4952014;28;20027;-69
2021/08/31 09:05:00;;;;;;;10.38;4.88;;;19.70;95.20;;;;;;4947038;28;20035;-69
2021/08/31 09:07:30;;;;;;;13.02;5.15;;;19.80;95.40;;;;;;4950190;28;20086;-69
2021/08/31 09:10:22;;;;;;;11.57;4.97;;;19.90;95.20;;;;;;4952947;28;20393;-69
2021/08/31 09:12:50;;;;;;;10.30;5.53;;;19.90;94.70;;;;;;4951685;29;20059;-71
2021/08/31 09:15:33;;;;;;;9.40;5.53;;;19.90;94.70;;;;;;4950558;28;20035;-69
2021/08/31 09:18:05;;;;;;;8.35;4.68;;;20.00;94.80;;;;;;4953042;28;20033;-69
2021/08/31 09:20:31;;;;;;;11.10;5.45;;;20.10;94.70;;;;;;4951475;28;20035;-68
2021/08/31 09:22:57;;;;;;;10.88;5.63;;;20.10;94.40;;;;;;4953839;28;20074;-68
2021/08/31 09:25:56;;;;;;;11.57;4.95;;;20.10;94.40;;;;;;4966907;28;20063;-69
2021/08/31 09:28:27;;;;;;;11.93;4.72;;;20.10;94.30;;;;;;4945699;28;20043;-69
2021/08/31 09:31:01;;;;;;;10.38;4.80;;;20.10;94.20;;;;;;4952037;28;20023;-70
2021/08/31 09:33:29;;;;;;;12.20;4.57;;;20.10;94.10;;;;;;4950023;28;20048;-70
2021/08/31 09:36:09;;;;;;;11.65;4.85;;;20.20;94.00;;;;;;4951480;28;20031;-70
2021/08/31 09:38:54;;;;;;;7.93;5.18;;;20.10;94.00;;;;;;4950974;28;20031;-71
2021/08/31 09:41:39;;;;;;;11.90;5.20;;;20.10;93.90;;;;;;4951974;28;20023;-69
2021/08/31 09:44:21;;;;;;;10.40;4.00;;;20.10;94.10;;;;;;4953633;29;20030;-71
2021/08/31 09:46:57;;;;;;;6.72;3.78;;;20.20;93.90;;;;;;4952438;28;20031;-69
2021/08/31 09:49:29;;;;;;;10.32;4.80;;;20.30;93.90;;;;;;4954329;29;20486;-69
2021/08/31 09:52:09;;;;;;;12.05;4.90;;;20.30;93.50;;;;;;4951799;28;20039;-70
2021/08/31 09:54:37;;;;;;;11.00;4.97;;;20.30;93.40;;;;;;4951347;28;20034;-70
2021/08/31 09:57:23;;;;;;;13.25;5.13;;;20.30;93.30;;;;;;4956200;28;20474;-70
2021/08/31 09:59:49;;;;;;;10.27;4.43;;;20.40;93.50;;;;;;4950124;28;20143;-70
2021/08/31 10:02:15;;;;;;;10.00;5.00;;;20.40;93.50;;;;;;4948912;29;20110;-70
2021/08/31 10:04:41;;;;;;;14.32;5.90;;;20.60;93.40;;;;;;4954865;28;20031;-70
2021/08/31 10:07:08;;;;;;;11.93;4.72;;;20.70;93.20;;;;;;4957292;28;20070;-70
2021/08/31 10:09:36;;;;;;;10.60;5.00;;;20.70;93.10;;;;;;4953829;28;20088;-69
2021/08/31 10:12:01;;;;;;;10.35;4.80;;;20.80;92.90;;;;;;4958280;28;20135;-69
2021/08/31 10:14:28;;;;;;;15.98;4.97;;;20.90;92.70;;;;;;4958087;28;20126;-70
2021/08/31 10:16:53;;;;;;;16.48;5.20;;;21.00;92.20;;;;;;4963811;28;20030;-69
2021/08/31 10:19:20;;;;;;;9.90;4.45;;;20.90;92.00;;;;;;4971366;28;20042;-70
2021/08/31 10:21:46;;;;;;;11.57;4.82;;;20.80;92.30;;;;;;4952556;29;20027;-69
2021/08/31 10:24:11;;;;;;;14.18;4.93;;;20.80;92.40;;;;;;4948152;29;20536;-69
2021/08/31 10:26:38;;;;;;;8.38;4.95;;;20.70;92.50;;;;;;4954812;28;20031;-69
2021/08/31 10:29:16;;;;;;;10.88;4.38;;;20.60;92.60;;;;;;4957028;28;20128;-70
2021/08/31 10:31:43;;;;;;;11.55;4.80;;;20.50;92.40;;;;;;4955231;28;20106;-70
2021/08/31 10:34:30;;;;;;;11.38;4.55;;;20.50;92.80;;;;;;4954720;28;20047;-70
2021/08/31 10:37:00;;;;;;;5.97;3.40;;;20.70;92.50;;;;;;4971533;28;20035;-69
2021/08/31 10:39:55;;;;;;;8.00;4.07;;;20.90;92.00;;;;;;4955820;28;20082;-70
2021/08/31 10:42:27;;;;;;;7.25;3.83;;;21.00;91.60;;;;;;4959013;28;20429;-70
2021/08/31 10:44:56;;;;;;;9.63;3.95;;;21.00;91.60;;;;;;4952051;28;20035;-70
2021/08/31 10:47:36;;;;;;;9.40;4.13;;;21.10;91.20;;;;;;4951559;28;20044;-70
2021/08/31 10:50:02;;;;;;;7.30;3.95;;;21.20;90.80;;;;;;4952248;29;20027;-69
2021/08/31 10:52:43;;;;;;;8.73;3.90;;;21.40;90.90;;;;;;4957539;28;20050;-70
2021/08/31 10:55:35;;;;;;;11.38;4.15;;;21.40;90.70;;;;;;4955041;28;20081;-70
2021/08/31 10:58:09;;;;;;;11.00;4.85;;;21.40;90.80;;;;;;4952802;28;20482;-70
2021/08/31 11:00:35;;;;;;;11.55;4.57;;;21.30;91.00;;;;;;4955664;28;20105;-70
2021/08/31 11:03:01;;;;;;;11.38;5.05;;;21.40;90.90;;;;;;4955903;28;20114;-70
2021/08/31 11:05:28;;;;;;;8.90;4.25;;;21.50;90.30;;;;;;4955797;29;20027;-71
2021/08/31 11:08:00;;;;;;;10.00;4.90;;;21.60;90.40;;;;;;4950848;28;20045;-70
2021/08/31 11:10:27;;;;;;;9.30;4.32;;;21.70;90.30;;;;;;4953853;28;20058;-70
2021/08/31 11:12:54;;;;;;;9.43;4.00;;;21.70;90.10;;;;;;4964453;28;20062;-69
2021/08/31 11:15:21;;;;;;;6.53;3.60;;;21.80;89.60;;;;;;4954968;28;20039;-70
2021/08/31 11:17:49;;;;;;;6.15;3.75;;;21.60;88.50;;;;;;4955436;29;20027;-70
2021/08/31 11:20:19;;;;;;;9.15;3.85;;;21.50;89.50;;;;;;4970847;28;20031;-70
2021/08/31 11:22:48;;;;;;;7.57;4.35;;;21.50;89.50;;;;;;4953098;29;20465;-71
2021/08/31 11:25:14;;;;;;;6.18;3.55;;;21.70;88.80;;;;;;4955434;28;20481;-70
2021/08/31 11:28:01;;;;;;;6.88;3.28;;;21.90;88.60;;;;;;4954703;29;20066;-70
2021/08/31 11:30:44;;;;;;;10.27;4.32;;;22.20;88.20;;;;;;4955303;28;20060;-71
2021/08/31 11:33:27;;;;;;;7.90;3.65;;;22.10;87.40;;;;;;4950950;28;20035;-70
2021/08/31 11:35:55;;;;;;;11.90;5.35;;;21.90;87.40;;;;;;4954109;28;20031;-70
2021/08/31 11:38:43;;;;;;;5.30;3.40;;;21.60;87.60;;;;;;4953566;29;20030;-71
2021/08/31 11:41:21;;;;;;;12.25;4.63;;;21.70;88.80;;;;;;4955251;29;20023;-70
2021/08/31 11:44:03;;;;;;;8.77;3.80;;;21.70;88.30;;;;;;4954447;28;20024;-70
2021/08/31 11:46:31;;;;;;;8.45;3.97;;;21.90;88.10;;;;;;4954753;28;20418;-70
2021/08/31 11:49:18;;;;;;;10.25;3.85;;;21.90;87.20;;;;;;4952426;28;20032;-70
2021/08/31 11:52:04;;;;;;;8.18;3.72;;;21.80;87.40;;;;;;4962321;28;20035;-70
2021/08/31 11:54:33;;;;;;;9.80;4.13;;;21.80;88.30;;;;;;4961659;28;20019;-70
2021/08/31 11:57:04;;;;;;;6.85;3.30;;;21.80;87.60;;;;;;4973499;28;20027;-70
2021/08/31 11:59:37;;;;;;;8.68;3.85;;;21.90;87.90;;;;;;4958077;28;20063;-70
2021/08/31 12:02:23;;;;;;;8.30;3.67;;;22.10;87.20;;;;;;4954790;28;20082;-70
2021/08/31 12:04:58;;;;;;;11.00;4.10;;;22.30;86.30;;;;;;4954914;28;20023;-70
2021/08/31 12:07:33;;;;;;;9.02;4.15;;;22.40;85.00;;;;;;4935846;29;20115;-70
2021/08/31 12:10:26;;;;;;;8.73;3.50;;;22.50;85.10;;;;;;4968243;28;20031;-70
2021/08/31 12:12:52;;;;;;;7.75;3.28;;;22.50;84.40;;;;;;4938558;28;20122;-70
2021/08/31 12:15:23;;;;;;;7.75;3.67;;;22.40;83.40;;;;;;4954349;29;20029;-70
2021/08/31 12:17:59;;;;;;;8.40;3.40;;;22.30;83.90;;;;;;4954734;28;20027;-70
2021/08/31 12:20:25;;;;;;;6.68;3.38;;;22.40;84.60;;;;;;4954287;28;20349;-70
2021/08/31 12:22:55;;;;;;;7.10;3.50;;;22.60;83.60;;;;;;4953101;29;20434;-71
2021/08/31 12:25:21;;;;;;;9.43;3.30;;;22.80;83.70;;;;;;4954235;28;20562;-70
2021/08/31 12:27:50;;;;;;;7.28;3.05;;;22.90;82.40;;;;;;4954231;29;20149;-70
2021/08/31 12:30:18;;;;;;;10.65;3.67;;;22.70;82.10;;;;;;4953793;28;20023;-70
2021/08/31 12:32:54;;;;;;;10.40;3.85;;;22.40;83.20;;;;;;4954336;28;20050;-70
2021/08/31 12:35:27;;;;;;;7.78;3.92;;;22.50;83.50;;;;;;4953047;28;20126;-70
2021/08/31 12:38:17;;;;;;;9.15;2.97;;;22.60;83.00;;;;;;4954021;28;20027;-70